Time;durP1;ratioP1;P1;durP2;ratioP2;P2;SDS_P1;SDS_P2;PMS_P1;PMS_P2;Temp;Humidity;BMP_temperature;BMP_pressure;BME280_temperature;BME280_humidity;BME280_pressure;Samples;Min_cycle;Max_cycle;Signal;HPM_P1;HPM_P2
2022/09/25 00:02:17;;;;;;;10.20;2.90;;;;;;;10.42;100.00;101513.47;5338755;27;20032;-79
2022/09/25 00:04:48;;;;;;;10.48;2.40;;;;;;;10.36;100.00;101520.13;5342795;27;20051;-80
2022/09/25 00:07:19;;;;;;;15.70;3.08;;;;;;;10.26;100.00;101505.81;5342136;27;20436;-79
2022/09/25 00:09:51;;;;;;;9.25;2.78;;;;;;;10.23;100.00;101514.91;5341523;27;20027;-80
2022/09/25 00:12:22;;;;;;;9.18;2.85;;;;;;;10.15;100.00;101520.88;5341782;27;20107;-80
2022/09/25 00:14:54;;;;;;;7.90;2.72;;;;;;;10.12;100.00;101523.78;5341817;27;20073;-80
2022/09/25 00:17:25;;;;;;;10.63;2.70;;;;;;;10.09;100.00;101523.16;5340693;27;20448;-80
2022/09/25 00:19:57;;;;;;;10.60;3.03;;;;;;;10.07;100.00;101528.63;5323772;27;20085;-80
2022/09/25 00:22:29;;;;;;;9.50;2.80;;;;;;;9.99;100.00;101521.25;5342553;27;20070;-80
2022/09/25 00:25:01;;;;;;;10.45;3.55;;;;;;;10.07;100.00;101531.28;5320024;27;20027;-80
2022/09/25 00:27:32;;;;;;;9.90;3.30;;;;;;;10.06;100.00;101540.25;5337717;27;20042;-80
2022/09/25 00:30:04;;;;;;;11.90;3.47;;;;;;;9.98;100.00;101530.19;5342200;27;20032;-80
2022/09/25 00:32:36;;;;;;;11.15;3.65;;;;;;;9.98;100.00;101529.34;5337228;27;20376;-80
2022/09/25 00:35:08;;;;;;;16.45;3.55;;;;;;;9.99;100.00;101529.25;5340540;27;20034;-80
2022/09/25 00:37:39;;;;;;;14.25;3.85;;;;;;;9.91;100.00;101520.16;5335096;27;20019;-80
2022/09/25 00:40:11;;;;;;;10.60;3.58;;;;;;;9.93;100.00;101523.53;5339638;27;20019;-79
2022/09/25 00:42:43;;;;;;;10.70;3.90;;;;;;;9.76;100.00;101514.22;5341939;27;20035;-79
2022/09/25 00:45:18;;;;;;;8.05;3.13;;;;;;;9.76;100.00;101509.72;5340116;27;20024;-79
2022/09/25 00:47:55;;;;;;;15.18;3.83;;;;;;;9.79;100.00;101521.97;5322581;27;20057;-79
2022/09/25 00:50:26;;;;;;;12.73;3.65;;;;;;;9.80;100.00;101521.84;5340270;27;20055;-79
2022/09/25 00:53:08;;;;;;;13.48;3.28;;;;;;;9.73;100.00;101520.63;5339505;27;20066;-80
2022/09/25 00:55:43;;;;;;;13.18;3.63;;;;;;;9.81;100.00;101530.69;5339808;27;20062;-79
2022/09/25 00:58:18;;;;;;;18.83;4.05;;;;;;;9.80;100.00;101528.97;5323905;27;20105;-79
2022/09/25 01:00:52;;;;;;;10.27;3.65;;;;;;;9.80;100.00;101539.63;5337692;27;20087;-79
2022/09/25 01:03:25;;;;;;;12.15;3.17;;;;;;;9.77;100.00;101531.91;5341014;27;20102;-79
2022/09/25 01:05:58;;;;;;;15.95;3.65;;;;;;;9.65;100.00;101520.38;5341981;27;20036;-80
2022/09/25 01:08:31;;;;;;;10.10;3.65;;;;;;;9.74;100.00;101532.13;5320051;27;20031;-79
2022/09/25 01:11:03;;;;;;;9.75;2.83;;;;;;;9.73;100.00;101533.09;5337882;27;20047;-79
2022/09/25 01:13:35;;;;;;;13.73;4.07;;;;;;;9.65;100.00;101536.38;5341073;27;20023;-79
2022/09/25 01:16:17;;;;;;;9.60;3.25;;;;;;;9.61;100.00;101533.09;5338363;27;20024;-79
2022/09/25 01:19:02;;;;;;;10.48;3.50;;;;;;;9.58;100.00;101533.31;5338928;27;20024;-79
2022/09/25 01:21:51;;;;;;;10.02;3.10;;;;;;;9.57;100.00;101536.09;5338497;27;20061;-79
2022/09/25 01:24:41;;;;;;;12.00;3.20;;;;;;;9.45;100.00;101530.78;5340145;27;20042;-79
2022/09/25 01:27:29;;;;;;;15.77;3.25;;;;;;;9.36;100.00;101527.97;5341343;27;20031;-79
2022/09/25 01:30:18;;;;;;;12.15;3.60;;;;;;;9.35;100.00;101540.44;5320146;27;20504;-79
2022/09/25 01:33:12;;;;;;;10.90;3.50;;;;;;;9.32;100.00;101542.47;5340429;27;20024;-79
2022/09/25 01:36:06;;;;;;;6.63;2.92;;;;;;;9.12;100.00;101528.88;5339926;27;20465;-79
2022/09/25 01:39:08;;;;;;;11.27;3.53;;;;;;;9.12;100.00;101542.19;5339951;27;20036;-79
2022/09/25 01:41:45;;;;;;;14.13;3.17;;;;;;;9.14;100.00;101552.72;5337943;27;20073;-79
2022/09/25 01:44:29;;;;;;;10.55;2.90;;;;;;;9.11;100.00;101555.59;5340255;27;20035;-79
2022/09/25 01:47:09;;;;;;;21.65;3.75;;;;;;;9.02;100.00;101554.47;5321732;27;20027;-79
2022/09/25 01:49:49;;;;;;;15.05;3.25;;;;;;;8.94;100.00;101555.06;5338260;27;20382;-79
2022/09/25 01:52:31;;;;;;;13.15;3.42;;;;;;;8.85;100.00;101550.41;5337802;27;20031;-79
2022/09/25 01:55:25;;;;;;;11.18;2.92;;;;;;;8.80;100.00;101552.56;5340217;27;20080;-79
2022/09/25 01:58:02;;;;;;;9.07;3.53;;;;;;;8.74;100.00;101558.34;5339436;27;20107;-79
2022/09/25 02:00:38;;;;;;;12.68;3.47;;;;;;;8.72;100.00;101568.25;5337781;27;20143;-78
2022/09/25 02:03:15;;;;;;;7.90;3.03;;;;;;;8.64;100.00;101567.00;5336046;27;20032;-79
2022/09/25 02:05:55;;;;;;;12.30;3.40;;;;;;;8.62;100.00;101552.09;5332550;27;20031;-79
2022/09/25 02:08:38;;;;;;;9.93;3.30;;;;;;;8.47;100.00;101551.44;5340146;27;20424;-79
2022/09/25 02:11:11;;;;;;;10.95;3.58;;;;;;;8.35;100.00;101544.31;5339712;27;20038;-80
2022/09/25 02:13:51;;;;;;;11.27;3.10;;;;;;;8.28;100.00;101547.41;5341930;27;20477;-79
2022/09/25 02:16:33;;;;;;;14.77;3.38;;;;;;;8.10;100.00;101530.97;5339843;27;20058;-79
2022/09/25 02:22:22;;;;;;;11.90;3.65;;;;;;;8.08;100.00;101545.31;5338257;27;20464;-79
2022/09/25 02:25:02;;;;;;;11.85;3.65;;;;;;;8.02;100.00;101540.44;5342640;27;20059;-79
2022/09/25 02:27:34;;;;;;;13.00;4.22;;;;;;;7.97;100.00;101543.41;5342465;27;20042;-79
2022/09/25 02:30:05;;;;;;;15.15;3.53;;;;;;;7.83;100.00;101549.69;5322160;27;20489;-79
2022/09/25 02:32:37;;;;;;;7.90;3.20;;;;;;;7.68;100.00;101550.75;5342893;27;20389;-79
2022/09/25 02:35:08;;;;;;;9.27;3.25;;;;;;;7.63;100.00;101544.94;5343561;27;20028;-79
2022/09/25 02:37:40;;;;;;;15.75;4.63;;;;;;;7.65;100.00;101545.69;5344402;27;20380;-79
2022/09/25 02:40:11;;;;;;;11.40;4.32;;;;;;;7.70;100.00;101549.72;5340808;27;20035;-80
2022/09/25 02:42:54;;;;;;;12.50;4.18;;;;;;;7.53;100.00;101536.75;5344162;27;20076;-79
2022/09/25 02:45:56;;;;;;;11.40;4.75;;;;;;;7.64;100.00;101550.13;5345423;27;20015;-79
2022/09/25 02:48:42;;;;;;;12.13;4.93;;;;;;;7.64;100.00;101554.59;5342011;27;20020;-80
2022/09/25 02:51:32;;;;;;;12.57;4.35;;;;;;;7.42;100.00;101528.69;5340641;27;20665;-79
2022/09/25 02:54:17;;;;;;;14.48;4.72;;;;;;;7.57;100.00;101543.53;5342876;27;20081;-79
2022/09/25 02:57:03;;;;;;;11.73;4.90;;;;;;;7.53;100.00;101542.06;5342821;27;20043;-79
2022/09/25 02:59:41;;;;;;;17.52;5.50;;;;;;;7.35;100.00;101534.41;5342920;27;20378;-79
2022/09/25 03:02:15;;;;;;;9.50;3.95;;;;;;;7.23;100.00;101521.97;5344393;27;20019;-79
2022/09/25 03:04:48;;;;;;;14.98;4.38;;;;;;;7.26;100.00;101520.91;5347195;27;20066;-79
2022/09/25 03:07:20;;;;;;;14.93;5.10;;;;;;;7.08;100.00;101521.22;5344582;27;20038;-79
2022/09/25 03:09:54;;;;;;;15.77;5.03;;;;;;;7.21;100.00;101523.03;5341217;27;20111;-79
2022/09/25 03:12:26;;;;;;;13.27;4.90;;;;;;;7.24;100.00;101530.75;5343052;27;21962;-80
2022/09/25 03:14:58;;;;;;;16.95;5.82;;;;;;;7.24;100.00;101536.06;5344324;27;20016;-79
2022/09/25 03:17:32;;;;;;;11.50;5.38;;;;;;;7.23;100.00;101526.44;5344176;27;20362;-79
2022/09/25 03:20:04;;;;;;;12.30;5.32;;;;;;;7.06;100.00;101530.22;5343407;27;20032;-79
2022/09/25 03:22:36;;;;;;;19.70;5.97;;;;;;;7.05;100.00;101536.47;5343218;27;20081;-79
2022/09/25 03:25:07;;;;;;;14.95;6.32;;;;;;;7.17;100.00;101539.16;5341138;27;20019;-79
2022/09/25 03:27:39;;;;;;;13.63;6.72;;;;;;;6.90;100.00;101523.28;5342698;27;20028;-80
2022/09/25 03:30:11;;;;;;;23.42;7.93;;;;;;;6.90;100.00;101543.66;5343287;27;20458;-79
2022/09/25 03:32:43;;;;;;;16.35;7.25;;;;;;;6.84;100.00;101536.09;5341401;27;20031;-80
2022/09/25 03:35:14;;;;;;;15.20;7.20;;;;;;;7.04;100.00;101548.88;5343225;27;20039;-80
2022/09/25 03:37:46;;;;;;;22.70;9.02;;;;;;;6.90;100.00;101544.47;5343235;27;20513;-80
2022/09/25 03:40:17;;;;;;;16.42;8.88;;;;;;;6.98;100.00;101544.00;5343381;27;20035;-80
2022/09/25 03:42:48;;;;;;;21.38;10.38;;;;;;;6.88;100.00;101541.09;5343396;27;20044;-79
2022/09/25 03:45:20;;;;;;;19.25;8.48;;;;;;;6.84;100.00;101529.00;5344384;27;20094;-79
2022/09/25 03:47:51;;;;;;;23.67;10.55;;;;;;;6.68;100.00;101526.50;5320380;27;20039;-79
2022/09/25 03:50:22;;;;;;;31.80;11.70;;;;;;;6.63;100.00;101529.44;5338208;27;20109;-80
2022/09/25 03:52:55;;;;;;;26.63;10.38;;;;;;;6.70;100.00;101529.91;5342841;27;20083;-79
2022/09/25 03:55:27;;;;;;;30.52;12.07;;;;;;;6.40;100.00;101516.84;5343085;27;20024;-80
2022/09/25 03:57:58;;;;;;;23.40;10.88;;;;;;;6.53;100.00;101546.06;5324830;27;20662;-80
2022/09/25 04:00:30;;;;;;;19.23;11.25;;;;;;;6.32;100.00;101529.72;5342454;27;20450;-80
2022/09/25 04:03:01;;;;;;;29.73;11.70;;;;;;;6.45;100.00;101551.81;5343064;27;20530;-79
2022/09/25 04:05:33;;;;;;;60.10;13.60;;;;;;;6.18;100.00;101539.41;5344339;27;20089;-79
2022/09/25 04:08:05;;;;;;;30.20;11.93;;;;;;;6.40;100.00;101540.69;5345588;27;20381;-79
2022/09/25 04:10:37;;;;;;;23.52;12.75;;;;;;;6.23;100.00;101541.75;5345841;27;20028;-79
2022/09/25 04:13:12;;;;;;;30.50;14.18;;;;;;;6.21;100.00;101533.06;5347724;27;20061;-79
2022/09/25 04:15:43;;;;;;;28.17;12.20;;;;;;;6.29;100.00;101536.06;5346561;27;20027;-79
2022/09/25 04:18:14;;;;;;;23.23;12.20;;;;;;;6.23;100.00;101541.75;5343435;27;20488;-80
2022/09/25 04:20:46;;;;;;;33.83;15.95;;;;;;;6.39;100.00;101539.81;5341298;27;20027;-79
2022/09/25 04:23:17;;;;;;;34.50;14.35;;;;;;;6.47;100.00;101538.47;5320614;27;20031;-79
2022/09/25 04:25:49;;;;;;;36.47;16.45;;;;;;;6.17;100.00;101534.19;5341514;27;20609;-79
2022/09/25 04:28:22;;;;;;;31.23;14.23;;;;;;;6.16;100.00;101525.41;5339842;27;20039;-79
2022/09/25 04:30:53;;;;;;;29.02;13.63;;;;;;;6.20;100.00;101534.00;5340365;27;20023;-80
2022/09/25 04:36:17;;;;;;;29.52;13.23;;;;;;;6.05;100.00;101519.94;5340067;27;20114;-80
2022/09/25 04:38:48;;;;;;;32.55;15.52;;;;;;;6.20;100.00;101541.94;5338067;27;20445;-79
2022/09/25 04:41:20;;;;;;;47.22;19.40;;;;;;;5.99;100.00;101539.69;5342374;27;20073;-80
2022/09/25 04:43:51;;;;;;;47.20;17.50;;;;;;;5.94;100.00;101536.44;5343135;27;20483;-79
2022/09/25 04:46:22;;;;;;;33.70;16.55;;;;;;;5.94;100.00;101523.19;5342647;27;20028;-79
2022/09/25 04:48:54;;;;;;;36.53;17.70;;;;;;;5.88;100.00;101520.94;5340860;27;20106;-80
2022/09/25 04:51:25;;;;;;;44.92;21.50;;;;;;;6.06;100.00;101533.06;5342221;27;20484;-79
2022/09/25 04:53:57;;;;;;;46.95;17.73;;;;;;;5.78;100.00;101533.06;5340519;27;20031;-79
2022/09/25 04:56:28;;;;;;;42.25;18.38;;;;;;;5.77;100.00;101523.44;5343355;27;20112;-79
2022/09/25 04:58:59;;;;;;;33.88;15.45;;;;;;;6.05;100.00;101533.19;5341562;27;20040;-79
2022/09/25 05:01:31;;;;;;;50.80;21.55;;;;;;;6.02;100.00;101530.72;5320824;27;20414;-79
2022/09/25 05:04:02;;;;;;;113.00;19.40;;;;;;;6.28;100.00;101530.88;5341720;27;20430;-79
2022/09/25 05:06:33;;;;;;;40.10;13.68;;;;;;;6.41;100.00;101524.66;5343033;27;20435;-79
2022/09/25 05:09:05;;;;;;;86.05;17.42;;;;;;;6.27;100.00;101530.00;5320529;27;20023;-79
2022/09/25 05:11:36;;;;;;;58.60;23.30;;;;;;;6.09;100.00;101528.53;5340580;27;20106;-79
2022/09/25 05:14:07;;;;;;;37.03;15.88;;;;;;;6.06;100.00;101529.56;5340466;27;20027;-79
2022/09/25 05:16:39;;;;;;;39.70;16.17;;;;;;;5.91;100.00;101533.13;5339479;27;20031;-79
2022/09/25 05:19:10;;;;;;;33.15;15.23;;;;;;;5.90;100.00;101526.16;5338823;27;20036;-80
2022/09/25 05:21:42;;;;;;;47.25;18.58;;;;;;;5.99;100.00;101515.84;5338451;27;20094;-79
2022/09/25 05:24:14;;;;;;;42.90;17.13;;;;;;;6.11;100.00;101511.59;5336752;27;20055;-79
2022/09/25 05:26:46;;;;;;;82.18;20.60;;;;;;;6.12;100.00;101510.66;5340901;27;20016;-79
2022/09/25 05:29:17;;;;;;;41.53;16.67;;;;;;;6.33;100.00;101526.13;5346332;27;20023;-79
2022/09/25 05:31:49;;;;;;;39.70;16.20;;;;;;;5.98;100.00;101505.38;5343710;27;20023;-79
2022/09/25 05:34:20;;;;;;;46.83;19.45;;;;;;;6.07;100.00;101515.41;5345073;27;20016;-79
2022/09/25 05:36:52;;;;;;;48.35;17.75;;;;;;;6.00;100.00;101522.03;5344806;27;20370;-79
2022/09/25 05:39:23;;;;;;;56.05;22.92;;;;;;;5.91;100.00;101517.25;5345017;27;20046;-79
2022/09/25 05:41:55;;;;;;;58.83;22.05;;;;;;;5.85;100.00;101507.91;5344680;27;20107;-79
2022/09/25 05:44:27;;;;;;;54.53;22.77;;;;;;;5.77;100.00;101524.28;5346295;27;20062;-80
2022/09/25 05:46:58;;;;;;;159.00;28.27;;;;;;;5.38;100.00;101515.19;5345496;27;20448;-79
2022/09/25 05:49:30;;;;;;;53.40;22.60;;;;;;;5.68;100.00;101503.66;5345374;27;20381;-79
2022/09/25 05:52:01;;;;;;;55.42;22.60;;;;;;;5.82;100.00;101529.25;5341068;27;20398;-79
2022/09/25 05:54:33;;;;;;;101.97;25.65;;;;;;;5.47;100.00;101525.19;5340064;27;20102;-79
2022/09/25 05:57:04;;;;;;;46.00;21.30;;;;;;;5.85;100.00;101527.28;5324978;27;20039;-79
2022/09/25 05:59:35;;;;;;;89.97;25.42;;;;;;;5.48;100.00;101537.47;5346018;27;20032;-79
2022/09/25 06:02:11;;;;;;;57.70;21.65;;;;;;;5.76;100.00;101524.38;5339667;27;20092;-79
2022/09/25 06:04:42;;;;;;;55.10;22.80;;;;;;;5.85;100.00;101527.28;5341803;27;20044;-79
2022/09/25 06:07:13;;;;;;;45.10;18.95;;;;;;;6.05;100.00;101538.47;5345918;27;20474;-79
2022/09/25 06:09:45;;;;;;;55.72;25.02;;;;;;;6.25;100.00;101545.16;5344825;27;20027;-80
2022/09/25 06:12:17;;;;;;;58.13;23.10;;;;;;;6.09;100.00;101534.69;5346640;27;20027;-80
2022/09/25 06:14:48;;;;;;;66.95;26.10;;;;;;;6.27;100.00;101540.59;5341167;27;20456;-79
2022/09/25 06:17:20;;;;;;;69.18;28.42;;;;;;;6.43;100.00;101540.47;5343187;27;20474;-79
2022/09/25 06:19:51;;;;;;;58.22;23.95;;;;;;;6.42;100.00;101542.28;5337968;27;20085;-79
2022/09/25 06:22:23;;;;;;;75.18;27.90;;;;;;;6.41;100.00;101526.47;5343772;27;20304;-79
2022/09/25 06:24:54;;;;;;;70.28;27.52;;;;;;;6.69;100.00;101543.25;5323556;27;20076;-80
2022/09/25 06:27:26;;;;;;;1999.90;227.90;;;;;;;6.99;100.00;101540.38;5340557;27;20964;-80
2022/09/25 06:29:57;;;;;;;1089.97;116.32;;;;;;;7.82;100.00;101542.69;5344411;27;20023;-79
2022/09/25 06:32:29;;;;;;;1999.90;508.70;;;;;;;8.21;100.00;101546.16;5344066;27;20043;-79
2022/09/25 06:35:00;;;;;;;1999.90;538.03;;;;;;;8.38;100.00;101552.91;5344697;27;20102;-80
2022/09/25 06:37:32;;;;;;;1999.90;343.40;;;;;;;8.83;100.00;101541.69;5343248;27;20027;-80
2022/09/25 06:40:03;;;;;;;267.08;57.42;;;;;;;9.56;100.00;101551.25;5342836;27;20545;-80
2022/09/25 06:42:35;;;;;;;865.55;110.97;;;;;;;9.74;100.00;101543.63;5342824;27;20051;-80
2022/09/25 06:45:09;;;;;;;680.35;86.90;;;;;;;10.12;100.00;101539.75;5341426;27;20032;-80
2022/09/25 06:47:40;;;;;;;53.53;29.40;;;;;;;10.51;100.00;101542.03;5324400;27;20028;-81
2022/09/25 06:50:13;;;;;;;104.63;38.70;;;;;;;10.40;100.00;101545.59;5341234;27;20031;-80
2022/09/25 06:52:45;;;;;;;48.67;28.25;;;;;;;10.86;100.00;101543.63;5341587;27;20020;-81
2022/09/25 06:55:16;;;;;;;42.97;24.33;;;;;;;11.46;100.00;101554.63;5342394;27;20074;-80
2022/09/25 06:57:48;;;;;;;29.67;19.63;;;;;;;11.49;100.00;101547.19;5340105;27;20487;-80
2022/09/25 07:00:20;;;;;;;22.48;17.08;;;;;;;12.32;100.00;101551.66;5341604;27;20048;-80
2022/09/25 07:05:43;;;;;;;20.33;12.63;;;;;;;11.99;100.00;101550.97;5341574;27;20031;-80
2022/09/25 07:08:17;;;;;;;14.15;10.32;;;;;;;12.41;100.00;101562.41;5326660;27;20614;-81
2022/09/25 07:10:53;;;;;;;11.52;8.45;;;;;;;12.58;100.00;101568.06;5346206;27;20419;-81
2022/09/25 07:13:28;;;;;;;8.32;6.95;;;;;;;12.98;100.00;101570.66;5342064;27;20023;-81
2022/09/25 07:16:02;;;;;;;13.82;7.40;;;;;;;13.56;100.00;101571.63;5338604;27;20031;-80
2022/09/25 07:18:34;;;;;;;8.32;6.05;;;;;;;14.23;100.00;101563.50;5330806;27;20027;-80
2022/09/25 07:21:12;;;;;;;10.10;6.20;;;;;;;15.55;100.00;101574.56;5330163;27;20076;-81
2022/09/25 07:23:47;;;;;;;7.65;5.40;;;;;;;15.64;100.00;101578.97;5347366;27;20034;-81
2022/09/25 07:26:24;;;;;;;5.68;4.93;;;;;;;16.40;100.00;101566.59;5345135;27;20528;-81
2022/09/25 07:28:59;;;;;;;7.90;4.53;;;;;;;16.16;100.00;101571.88;5346325;27;20085;-80
2022/09/25 07:31:32;;;;;;;6.82;4.40;;;;;;;17.76;100.00;101557.28;5344659;27;20077;-81
2022/09/25 07:34:11;;;;;;;7.63;4.55;;;;;;;18.13;100.00;101558.53;5348455;27;20660;-81
2022/09/25 07:36:42;;;;;;;6.85;4.32;;;;;;;17.64;100.00;101555.97;5345572;27;20031;-81
2022/09/25 07:39:14;;;;;;;7.85;3.90;;;;;;;18.67;100.00;101555.03;5342553;27;20489;-80
2022/09/25 07:41:46;;;;;;;4.85;3.80;;;;;;;18.37;100.00;101545.94;5342465;27;20015;-81
2022/09/25 07:44:17;;;;;;;6.18;3.50;;;;;;;18.80;100.00;101549.06;5340191;27;20034;-81
2022/09/25 07:46:49;;;;;;;5.80;3.50;;;;;;;19.22;100.00;101540.47;5339639;27;20446;-81
2022/09/25 07:49:20;;;;;;;5.30;3.33;;;;;;;19.31;100.00;101549.34;5339254;27;20024;-81
2022/09/25 07:51:52;;;;;;;8.00;3.47;;;;;;;19.14;100.00;101554.03;5339157;27;20477;-81
2022/09/25 07:54:23;;;;;;;5.03;3.20;;;;;;;18.93;100.00;101543.06;5321923;27;20028;-81
2022/09/25 07:56:55;;;;;;;5.22;3.50;;;;;;;19.40;100.00;101542.00;5342148;27;20027;-81
2022/09/25 07:59:26;;;;;;;4.85;3.70;;;;;;;19.02;100.00;101521.22;5338779;27;20119;-81
2022/09/25 08:01:58;;;;;;;4.15;2.97;;;;;;;19.92;100.00;101532.19;5342061;27;20380;-81
2022/09/25 08:04:29;;;;;;;6.43;3.08;;;;;;;20.67;100.00;101530.19;5343078;27;20515;-79
2022/09/25 08:07:01;;;;;;;5.47;2.53;;;;;;;21.61;100.00;101527.25;5341244;27;20105;-79
2022/09/25 08:09:32;;;;;;;4.50;2.50;;;;;;;21.88;100.00;101532.84;5323116;27;20123;-81
2022/09/25 08:12:03;;;;;;;4.65;2.60;;;;;;;22.85;100.00;101539.06;5343300;27;20534;-81
2022/09/25 08:14:35;;;;;;;5.25;2.78;;;;;;;23.36;100.00;101540.34;5342901;27;20020;-81
2022/09/25 08:17:07;;;;;;;4.82;2.47;;;;;;;24.58;100.00;101529.75;5342930;27;20069;-81
2022/09/25 08:19:38;;;;;;;3.63;1.58;;;;;;;23.92;100.00;101523.50;5325469;27;20118;-81
2022/09/25 08:22:10;;;;;;;2.58;1.50;;;;;;;25.20;100.00;101535.38;5338982;27;20393;-81
2022/09/25 08:24:41;;;;;;;5.88;1.73;;;;;;;25.36;100.00;101519.50;5323529;27;20020;-81
2022/09/25 08:27:13;;;;;;;5.35;1.90;;;;;;;24.68;100.00;101523.78;5341904;27;20491;-80
2022/09/25 08:29:45;;;;;;;4.57;1.65;;;;;;;24.86;100.00;101521.16;5342092;27;20032;-80
2022/09/25 08:32:16;;;;;;;2.75;1.20;;;;;;;24.38;100.00;101520.81;5338435;27;20051;-80
2022/09/25 08:34:48;;;;;;;3.83;1.25;;;;;;;24.56;100.00;101522.81;5340171;27;20110;-80
2022/09/25 08:37:19;;;;;;;4.38;1.35;;;;;;;25.76;100.00;101535.50;5325192;27;20039;-81
2022/09/25 08:39:51;;;;;;;3.78;1.80;;;;;;;25.89;100.00;101529.03;5340704;27;20389;-80
2022/09/25 08:42:32;;;;;;;2.60;1.15;;;;;;;26.53;100.00;101519.41;5337937;27;20039;-80
2022/09/25 08:50:52;;;;;;;4.57;1.27;;;;;;;27.32;97.59;101521.97;5338034;27;20023;-81
2022/09/25 08:53:24;;;;;;;3.33;0.93;;;;;;;27.97;97.32;101522.06;5319961;27;20393;-80
2022/09/25 08:56:16;;;;;;;4.93;1.10;;;;;;;27.58;89.26;101539.00;5343110;27;20760;-81
2022/09/25 08:58:59;;;;;;;4.47;1.13;;;;;;;29.48;84.49;101537.09;5339632;27;20040;-80
2022/09/25 09:01:45;;;;;;;5.07;1.02;;;;;;;29.67;91.70;101537.66;5343660;27;20051;-81
2022/09/25 09:04:32;;;;;;;5.15;1.00;;;;;;;30.08;94.98;101516.19;5344538;27;20042;-81
2022/09/25 09:07:10;;;;;;;3.95;1.35;;;;;;;30.41;73.67;101528.16;5339108;27;20093;-81
2022/09/25 09:10:03;;;;;;;5.55;1.20;;;;;;;30.66;67.22;101519.34;5342365;27;20101;-81
2022/09/25 09:12:42;;;;;;;5.40;1.40;;;;;;;31.22;50.30;101513.44;5337185;27;20051;-82
2022/09/25 09:15:29;;;;;;;4.57;1.40;;;;;;;31.48;52.14;101514.44;5321491;27;20040;-82
2022/09/25 09:18:13;;;;;;;3.78;0.82;;;;;;;30.57;52.40;101509.03;5342757;27;20458;-82
2022/09/25 09:20:51;;;;;;;6.22;1.38;;;;;;;28.46;71.89;101504.09;5339109;27;20032;-81
2022/09/25 09:23:45;;;;;;;5.28;1.30;;;;;;;28.92;77.59;101511.50;5336504;27;20067;-80
2022/09/25 09:26:32;;;;;;;3.30;1.02;;;;;;;30.00;79.08;101500.16;5324234;27;20042;-81
2022/09/25 09:29:41;;;;;;;5.90;1.40;;;;;;;31.61;80.23;101510.44;5339449;27;20097;-80
2022/09/25 09:32:21;;;;;;;2.65;0.88;;;;;;;32.35;60.35;101510.44;5338533;27;20480;-82
2022/09/25 09:35:01;;;;;;;3.20;1.08;;;;;;;33.02;53.40;101510.50;5339833;27;20070;-82
2022/09/25 09:38:17;;;;;;;4.53;1.10;;;;;;;32.22;50.78;101506.25;5323148;27;20028;-82
2022/09/25 09:41:23;;;;;;;3.78;1.02;;;;;;;29.78;63.99;101509.22;5313637;27;20970;-81
2022/09/25 09:44:18;;;;;;;4.07;0.90;;;;;;;30.29;63.53;101502.69;5340938;27;20391;-81
2022/09/25 09:47:38;;;;;;;3.95;1.05;;;;;;;28.89;58.37;101499.06;5342252;27;20027;-81
2022/09/25 09:50:27;;;;;;;5.90;1.17;;;;;;;28.56;89.14;101500.75;5308682;27;20042;-81
2022/09/25 09:53:04;;;;;;;4.20;1.08;;;;;;;28.54;60.65;101500.16;5334769;27;20547;-81
2022/09/25 09:55:49;;;;;;;4.13;1.00;;;;;;;29.66;73.87;101489.25;5339243;27;20020;-80
2022/09/25 09:58:35;;;;;;;5.18;1.00;;;;;;;31.19;48.46;101489.22;5340794;27;20065;-80
2022/09/25 10:01:09;;;;;;;1.95;0.70;;;;;;;31.60;47.77;101477.59;5335256;27;20024;-80
2022/09/25 10:03:42;;;;;;;4.15;1.20;;;;;;;31.96;53.23;101486.84;5337809;27;20039;-80
2022/09/25 10:06:16;;;;;;;6.03;1.35;;;;;;;31.96;44.42;101478.56;5340051;27;20034;-81
2022/09/25 10:08:47;;;;;;;4.03;1.00;;;;;;;32.38;50.32;101490.53;5317615;27;20028;-81
2022/09/25 10:11:19;;;;;;;5.82;0.90;;;;;;;33.43;42.19;101485.56;5326381;27;20038;-81
2022/09/25 10:13:52;;;;;;;6.32;0.95;;;;;;;33.51;41.62;101487.75;5339150;27;20035;-81
2022/09/25 10:16:24;;;;;;;9.18;1.30;;;;;;;31.77;38.70;101478.22;5343256;27;20024;-80
2022/09/25 10:19:05;;;;;;;3.03;0.90;;;;;;;30.54;42.49;101480.09;5321515;27;20039;-81
2022/09/25 10:21:44;;;;;;;1.65;0.70;;;;;;;27.39;46.89;101472.56;5341858;27;20200;-80
2022/09/25 10:24:50;;;;;;;5.00;0.90;;;;;;;28.33;58.39;101473.38;5337874;27;20036;-80
2022/09/25 10:27:48;;;;;;;2.50;0.90;;;;;;;28.92;57.66;101473.06;5338411;27;20036;-80
2022/09/25 10:30:21;;;;;;;3.55;1.30;;;;;;;30.47;58.16;101474.00;5339551;27;20543;-80
2022/09/25 10:33:00;;;;;;;5.88;1.00;;;;;;;31.58;43.85;101468.78;5341498;27;20016;-81
2022/09/25 10:35:37;;;;;;;3.15;0.82;;;;;;;32.59;40.74;101464.66;5337857;27;20024;-80
2022/09/25 10:38:30;;;;;;;5.45;1.33;;;;;;;35.31;41.61;101467.16;5337790;27;20993;-81
2022/09/25 10:41:06;;;;;;;3.92;1.00;;;;;;;35.54;40.26;101466.34;5342667;27;20024;-81
2022/09/25 10:43:52;;;;;;;5.93;1.10;;;;;;;36.90;30.25;101471.25;5338216;27;20051;-81
2022/09/25 10:52:21;;;;;;;2.63;1.00;;;;;;;26.44;45.45;101466.09;5339980;27;20032;-80
2022/09/25 10:55:11;;;;;;;;;;;;;;;30.20;61.85;101463.78;5338777;27;20508;-80
2022/09/25 10:57:45;;;;;;;4.00;0.85;;;;;;;30.88;64.84;101455.06;5337725;27;19919;-80
2022/09/25 11:00:23;;;;;;;4.25;1.10;;;;;;;30.95;46.03;101454.88;5334588;27;20039;-80
2022/09/25 11:03:01;;;;;;;3.92;0.70;;;;;;;32.20;37.66;101445.81;5339818;27;20059;-81
2022/09/25 11:05:36;;;;;;;2.63;0.85;;;;;;;32.90;33.01;101450.81;5341739;27;20043;-80
2022/09/25 11:08:08;;;;;;;3.53;0.98;;;;;;;33.70;30.42;101461.16;5342303;27;20031;-81
2022/09/25 11:10:51;;;;;;;3.78;1.00;;;;;;;34.66;38.27;101457.22;5339812;27;20032;-80
2022/09/25 11:13:35;;;;;;;2.28;0.75;;;;;;;36.32;29.13;101457.78;5340582;27;20042;-80
2022/09/25 11:16:10;;;;;;;4.03;0.95;;;;;;;36.57;27.43;101453.75;5342082;27;20066;-80
2022/09/25 11:18:45;;;;;;;4.07;0.80;;;;;;;34.01;29.27;101458.22;5341835;27;20031;-80
2022/09/25 11:21:28;;;;;;;2.85;0.73;;;;;;;31.24;35.07;101449.81;5320102;27;20115;-80
2022/09/25 11:24:19;;;;;;;2.75;0.70;;;;;;;32.62;39.17;101455.00;5339564;27;20115;-79
2022/09/25 11:27:03;;;;;;;1.92;0.63;;;;;;;34.16;33.29;101465.59;5337740;27;20055;-80
2022/09/25 11:29:43;;;;;;;1.85;0.82;;;;;;;35.39;28.29;101441.56;5335123;27;20058;-81
2022/09/25 11:32:22;;;;;;;4.00;0.70;;;;;;;35.75;27.34;101449.47;5340273;27;20027;-80
2022/09/25 11:34:59;;;;;;;3.80;0.65;;;;;;;36.61;26.81;101434.53;5325575;27;20035;-81
2022/09/25 11:37:48;;;;;;;4.28;0.85;;;;;;;38.03;26.03;101440.34;5340623;27;20586;-80
2022/09/25 11:43:37;;;;;;;5.97;1.00;;;;;;;30.57;36.38;101431.97;5334965;27;20024;-80
2022/09/25 11:46:27;;;;;;;2.67;0.90;;;;;;;29.50;73.49;101436.00;5309172;27;20027;-80
2022/09/25 11:49:30;;;;;;;3.58;1.00;;;;;;;32.94;43.15;101427.06;5338681;27;20074;-80
2022/09/25 11:52:16;;;;;;;2.78;0.75;;;;;;;34.81;37.33;101428.59;5328472;27;20093;-79
2022/09/25 11:55:13;;;;;;;1.90;0.50;;;;;;;36.16;27.60;101424.69;5340130;27;20494;-80
2022/09/25 11:58:03;;;;;;;3.17;0.63;;;;;;;37.67;26.50;101423.63;5333639;27;20043;-80
2022/09/25 12:00:48;;;;;;;2.25;0.57;;;;;;;37.25;27.29;101418.91;5339684;27;20035;-80
2022/09/25 12:04:04;;;;;;;2.40;0.98;;;;;;;36.70;30.72;101413.31;5342520;27;20477;-80
2022/09/25 12:07:04;;;;;;;3.97;0.80;;;;;;;32.40;40.39;101416.59;5334164;27;20047;-80
2022/09/25 12:10:02;;;;;;;4.00;1.08;;;;;;;30.06;46.19;101413.88;5347406;27;20027;-79
2022/09/25 12:12:41;;;;;;;2.70;0.63;;;;;;;27.52;52.68;101402.97;5328419;27;20074;-80
2022/09/25 12:15:30;;;;;;;3.90;0.80;;;;;;;26.59;100.00;101400.00;5327905;27;20032;-80
2022/09/25 12:18:40;;;;;;;2.38;0.70;;;;;;;26.37;69.50;101375.13;5345634;27;20492;-80
2022/09/25 12:21:32;;;;;;;4.75;0.80;;;;;;;28.49;56.22;101393.03;5238741;28;20030;-80
2022/09/25 12:24:04;;;;;;;2.67;0.70;;;;;;;30.44;53.00;101394.72;5238984;28;20491;-80
2022/09/25 12:26:51;;;;;;;3.45;1.08;;;;;;;32.24;39.66;101390.91;5314069;27;20124;-80